Cold Bay, Alaska
Current Conditions -  °F | °C
As of 2:00 PM on Friday 28 Nov 2014 (Local Time) from PACD Reporting Station
Overcast Overcast  
Wind Chill: 29°   Ceiling: 3700
Heat Index: 37°   Visibility: 10mi
Dew Point: 35°   Wind: 12mph
Humidity: 93%   Direction: 250°WSW
Pressure: 30.07"   Gusts: NA
Location:  55.18°N, 162.72°W
Report Text: PACD 282300Z 25010KT 10SM FEW022 FEW027 OVC037 03/02 A3007 RMK AO2 T00280017
Loading
Personal Weather Stations






























Interactive Weather Map New forecast layout! Learn more

10-Day Weather Forecast

Advertisements
Track Severe Weather on mobile